createdAt,value
2023-03-22T00:01:15.889Z,5.20
2023-03-22T00:03:43.979Z,5.10
2023-03-22T00:06:12.717Z,4.70
2023-03-22T00:08:40.556Z,4.83
2023-03-22T00:11:10.195Z,4.70
2023-03-22T00:13:38.290Z,4.70
2023-03-22T00:16:07.020Z,4.60
2023-03-22T00:18:34.934Z,4.50
2023-03-22T00:21:02.959Z,4.80
2023-03-22T00:23:31.256Z,4.60
2023-03-22T00:25:59.214Z,5.07
2023-03-22T00:28:28.869Z,4.83
2023-03-22T00:30:57.791Z,4.70
2023-03-22T00:33:26.394Z,5.20
2023-03-22T00:35:55.130Z,5.20
2023-03-22T00:38:29.961Z,5.10
2023-03-22T00:41:09.304Z,4.97
2023-03-22T00:43:38.707Z,4.70
2023-03-22T00:46:07.784Z,5.10
2023-03-22T00:48:36.110Z,4.93
2023-03-22T00:51:04.432Z,4.67
2023-03-22T00:53:33.004Z,5.57
2023-03-22T00:56:01.167Z,5.00
2023-03-22T00:58:29.518Z,5.33
2023-03-22T01:00:58.955Z,4.87
2023-03-22T01:03:27.108Z,4.50
2023-03-22T01:05:56.360Z,5.50
2023-03-22T01:08:24.188Z,5.60
2023-03-22T01:10:52.475Z,5.30
2023-03-22T01:13:20.871Z,5.37
2023-03-22T01:15:51.524Z,5.70
2023-03-22T01:18:20.957Z,5.80
2023-03-22T01:20:48.906Z,5.53
2023-03-22T01:23:17.197Z,5.20
2023-03-22T01:25:45.262Z,5.60
2023-03-22T01:28:13.212Z,5.80
2023-03-22T01:30:41.767Z,5.23
2023-03-22T01:33:09.833Z,5.70
2023-03-22T01:35:39.552Z,5.20
2023-03-22T01:38:07.591Z,6.00
2023-03-22T01:40:36.218Z,5.90
2023-03-22T01:43:04.190Z,6.10
2023-03-22T01:45:40.934Z,6.10
2023-03-22T01:48:25.704Z,5.80
2023-03-22T01:50:59.975Z,5.40
2023-03-22T01:53:28.375Z,4.87
2023-03-22T01:55:56.857Z,6.03
2023-03-22T01:58:25.100Z,5.47
2023-03-22T02:00:53.263Z,5.10
2023-03-22T02:03:24.053Z,5.87
2023-03-22T02:05:52.037Z,6.20
2023-03-22T02:08:21.474Z,5.73
2023-03-22T02:10:49.896Z,6.20
2023-03-22T02:13:39.190Z,6.30
2023-03-22T02:16:13.343Z,7.27
2023-03-22T02:18:48.964Z,8.10
2023-03-22T02:21:37.365Z,7.23
2023-03-22T02:24:35.172Z,7.80
2023-03-22T02:27:29.095Z,7.03
2023-03-22T02:30:01.755Z,7.40
2023-03-22T02:32:54.272Z,8.00
2023-03-22T02:35:48.969Z,8.80
2023-03-22T02:38:23.562Z,8.30
2023-03-22T02:40:54.296Z,8.13
2023-03-22T02:43:31.127Z,8.33
2023-03-22T02:46:01.940Z,8.43
2023-03-22T02:48:31.382Z,7.77
2023-03-22T02:51:03.668Z,8.03
2023-03-22T02:53:32.638Z,8.10
2023-03-22T02:56:03.372Z,7.70
2023-03-22T02:58:32.187Z,8.10
2023-03-22T03:01:03.446Z,7.77
2023-03-22T03:03:32.096Z,7.37
2023-03-22T03:06:02.255Z,7.87
2023-03-22T03:08:30.354Z,7.70
2023-03-22T03:10:58.623Z,7.07
2023-03-22T03:13:27.964Z,7.23
2023-03-22T03:15:57.332Z,7.23
2023-03-22T03:18:32.438Z,7.03
2023-03-22T03:21:03.246Z,7.40
2023-03-22T03:23:37.706Z,7.10
2023-03-22T03:26:09.379Z,7.50
2023-03-22T03:28:43.431Z,7.37
2023-03-22T03:31:20.532Z,6.90
2023-03-22T03:33:52.634Z,7.50
2023-03-22T03:36:21.005Z,6.40
2023-03-22T03:38:50.675Z,6.10
2023-03-22T03:41:19.773Z,7.20
2023-03-22T03:43:49.281Z,6.47
2023-03-22T03:46:17.723Z,6.30
2023-03-22T03:48:48.012Z,6.00
2023-03-22T03:51:15.811Z,5.60
2023-03-22T03:53:43.573Z,6.10
2023-03-22T03:56:11.567Z,6.20
2023-03-22T03:58:39.751Z,6.43
2023-03-22T04:01:09.363Z,6.10
2023-03-22T04:03:38.193Z,5.47
2023-03-22T04:06:06.630Z,6.10
2023-03-22T04:08:35.140Z,5.60
2023-03-22T04:11:03.091Z,5.90
2023-03-22T04:13:31.397Z,5.30
2023-03-22T04:16:02.094Z,5.10
2023-03-22T04:18:32.562Z,5.27
2023-03-22T04:21:00.791Z,5.27
2023-03-22T04:23:28.707Z,5.57
2023-03-22T04:25:59.768Z,5.47
2023-03-22T04:28:27.568Z,5.30
2023-03-22T04:30:57.764Z,5.57
2023-03-22T04:33:26.695Z,4.90
2023-03-22T04:35:57.269Z,5.10
2023-03-22T04:38:26.280Z,5.07
2023-03-22T04:40:55.539Z,5.13
2023-03-22T04:43:23.703Z,5.00
2023-03-22T04:45:54.632Z,4.53
2023-03-22T04:48:22.847Z,4.60
2023-03-22T04:50:53.265Z,4.00
2023-03-22T04:53:27.138Z,4.70
2023-03-22T04:55:57.293Z,4.20
2023-03-22T04:58:25.271Z,4.50
2023-03-22T05:00:54.525Z,5.00
2023-03-22T05:03:22.514Z,4.30
2023-03-22T05:05:53.947Z,4.40
2023-03-22T05:08:24.893Z,4.20
2023-03-22T05:10:53.253Z,4.10
2023-03-22T05:13:21.586Z,4.13
2023-03-22T05:15:50.585Z,4.13
2023-03-22T05:18:20.573Z,4.10
2023-03-22T05:20:48.688Z,3.80
2023-03-22T05:23:19.226Z,4.23
2023-03-22T05:25:49.213Z,3.93
2023-03-22T05:28:20.109Z,4.00
2023-03-22T05:30:48.044Z,3.87
2023-03-22T05:33:16.969Z,4.20
2023-03-22T05:35:44.869Z,4.60
2023-03-22T05:38:13.013Z,4.97
2023-03-22T05:40:41.422Z,4.00
2023-03-22T05:43:11.951Z,4.33
2023-03-22T05:45:40.306Z,4.33
2023-03-22T05:48:08.311Z,4.73
2023-03-22T05:50:37.060Z,4.90
2023-03-22T05:53:05.101Z,4.27
2023-03-22T05:55:33.035Z,4.00
2023-03-22T05:58:02.453Z,4.10
2023-03-22T06:00:32.098Z,4.63
2023-03-22T06:03:03.988Z,4.90
2023-03-22T06:05:32.750Z,4.57
2023-03-22T06:08:00.884Z,4.83
2023-03-22T06:10:29.006Z,5.57
2023-03-22T06:12:57.021Z,5.00
2023-03-22T06:15:25.103Z,5.10
2023-03-22T06:17:54.265Z,5.20
2023-03-22T06:20:22.446Z,5.70
2023-03-22T06:22:50.197Z,5.80
2023-03-22T06:25:18.541Z,5.77
2023-03-22T06:27:46.541Z,5.73
2023-03-22T06:30:15.322Z,6.33
2023-03-22T06:32:43.811Z,6.10
2023-03-22T06:35:13.312Z,6.30
2023-03-22T06:37:41.736Z,6.53
2023-03-22T06:40:10.756Z,5.93
2023-03-22T06:42:39.148Z,6.50
2023-03-22T06:45:08.731Z,6.13
2023-03-22T06:47:36.501Z,6.50
2023-03-22T06:50:04.527Z,7.07
2023-03-22T06:52:33.613Z,6.70
2023-03-22T06:55:01.375Z,6.57
2023-03-22T06:57:29.926Z,6.37
2023-03-22T06:59:57.970Z,6.60
2023-03-22T07:02:26.415Z,6.20
2023-03-22T07:04:54.811Z,5.90
2023-03-22T07:07:22.810Z,6.13
2023-03-22T07:09:53.517Z,6.00
2023-03-22T07:12:22.009Z,6.60
2023-03-22T07:14:50.493Z,6.00
2023-03-22T07:17:18.940Z,6.33
2023-03-22T07:19:47.080Z,6.37
2023-03-22T07:22:15.041Z,5.97
2023-03-22T07:24:55.708Z,6.07
2023-03-22T07:27:26.399Z,6.40
2023-03-22T07:29:54.280Z,6.17
2023-03-22T07:32:22.560Z,6.53
2023-03-22T07:34:50.685Z,6.40
2023-03-22T07:37:18.669Z,6.03
2023-03-22T07:39:47.047Z,6.27
2023-03-22T07:42:15.427Z,5.60
2023-03-22T07:44:47.636Z,5.63
2023-03-22T07:47:18.724Z,5.10
2023-03-22T07:49:48.262Z,4.97
2023-03-22T07:52:16.186Z,5.47
2023-03-22T07:54:44.161Z,5.20
2023-03-22T07:57:12.554Z,5.60
2023-03-22T07:59:41.208Z,5.37
2023-03-22T08:02:12.234Z,5.17
2023-03-22T08:04:40.820Z,5.80
2023-03-22T08:07:10.189Z,4.90
2023-03-22T08:09:38.769Z,4.67
2023-03-22T08:12:07.221Z,4.80
2023-03-22T08:14:37.269Z,4.37
2023-03-22T08:17:06.070Z,4.30
2023-03-22T08:19:36.181Z,4.90
2023-03-22T08:22:04.245Z,4.40
2023-03-22T08:24:32.696Z,4.67
2023-03-22T08:27:00.711Z,4.60
2023-03-22T08:29:29.053Z,4.20
2023-03-22T08:32:02.082Z,4.07
2023-03-22T08:34:30.422Z,4.00
2023-03-22T08:36:59.838Z,3.60
2023-03-22T08:39:28.349Z,3.67
2023-03-22T08:41:56.667Z,3.97
2023-03-22T08:44:24.674Z,4.00
2023-03-22T08:46:52.704Z,3.80
2023-03-22T08:49:20.736Z,3.87
2023-03-22T08:51:49.069Z,3.93
2023-03-22T08:54:18.900Z,3.97
2023-03-22T08:56:47.034Z,3.53
2023-03-22T08:59:15.223Z,3.43
2023-03-22T09:01:43.650Z,3.83
2023-03-22T09:04:11.719Z,3.50
2023-03-22T09:06:43.413Z,3.87
2023-03-22T09:09:11.552Z,3.10
2023-03-22T09:11:42.957Z,3.20
2023-03-22T09:14:11.225Z,3.70
2023-03-22T09:16:39.149Z,3.10
2023-03-22T09:19:07.905Z,3.13
2023-03-22T09:21:35.926Z,3.77
2023-03-22T09:24:04.242Z,3.00
2023-03-22T09:26:32.861Z,3.00
2023-03-22T09:29:02.214Z,2.87
2023-03-22T09:31:30.881Z,2.70
2023-03-22T09:33:59.134Z,3.03
2023-03-22T09:36:26.919Z,3.23
2023-03-22T09:38:55.370Z,2.80
2023-03-22T09:41:24.876Z,2.67
2023-03-22T09:43:54.799Z,3.03
2023-03-22T09:46:28.525Z,2.50
2023-03-22T09:48:56.519Z,2.23
2023-03-22T09:51:31.439Z,2.60
2023-03-22T09:53:59.601Z,2.60
2023-03-22T09:56:29.169Z,2.37
2023-03-22T09:58:59.592Z,2.20
2023-03-22T10:01:35.520Z,2.50
2023-03-22T10:04:16.779Z,2.03
2023-03-22T10:06:46.848Z,2.63
2023-03-22T10:09:16.174Z,2.80
2023-03-22T10:11:46.369Z,2.60
2023-03-22T10:14:28.562Z,2.33
2023-03-22T10:16:58.976Z,2.47
2023-03-22T10:19:28.810Z,2.00
2023-03-22T10:21:57.541Z,2.13
2023-03-22T10:24:27.104Z,2.40
2023-03-22T10:26:55.541Z,2.50
2023-03-22T10:29:24.880Z,2.17
2023-03-22T10:31:52.834Z,1.90
2023-03-22T10:34:24.099Z,2.10
2023-03-22T10:36:52.983Z,2.30
2023-03-22T10:39:28.312Z,1.83
2023-03-22T10:41:58.147Z,2.30
2023-03-22T10:44:26.876Z,2.03
2023-03-22T10:46:55.546Z,1.87
2023-03-22T10:49:27.212Z,1.70
2023-03-22T10:51:57.785Z,1.70
2023-03-22T10:54:26.242Z,2.73
2023-03-22T10:56:54.845Z,2.13
2023-03-22T10:59:43.717Z,1.77
2023-03-22T11:02:19.455Z,1.80
2023-03-22T11:04:52.788Z,2.53
2023-03-22T11:07:33.411Z,2.30
2023-03-22T11:10:22.901Z,2.10
2023-03-22T11:12:52.563Z,1.80
2023-03-22T11:15:26.832Z,2.27
2023-03-22T11:17:56.216Z,2.30
2023-03-22T11:20:35.128Z,2.30
2023-03-22T11:23:07.406Z,2.00
2023-03-22T11:25:36.446Z,2.47
2023-03-22T11:28:09.959Z,2.47
2023-03-22T11:30:38.227Z,2.30
2023-03-22T11:33:16.913Z,2.23
2023-03-22T11:35:48.556Z,2.27
2023-03-22T11:38:36.579Z,2.23
2023-03-22T11:41:05.647Z,2.30
2023-03-22T11:43:35.844Z,2.37
2023-03-22T11:46:04.263Z,1.83
2023-03-22T11:48:32.914Z,2.33
2023-03-22T11:51:08.000Z,1.90
2023-03-22T11:53:38.182Z,2.50
2023-03-22T11:56:07.927Z,2.33
2023-03-22T11:58:52.074Z,1.90
2023-03-22T12:01:22.458Z,1.97
2023-03-22T12:03:52.866Z,2.10
2023-03-22T12:06:23.444Z,2.20
2023-03-22T12:08:54.198Z,2.03
2023-03-22T12:11:26.467Z,1.87
2023-03-22T12:13:57.870Z,2.30
2023-03-22T12:16:27.751Z,2.00
2023-03-22T12:19:01.781Z,2.07
2023-03-22T12:21:31.457Z,2.47
2023-03-22T12:26:48.540Z,2.10
2023-03-22T12:29:18.586Z,2.40
2023-03-22T12:31:52.171Z,2.23
2023-03-22T12:34:21.927Z,2.10
2023-03-22T12:36:52.577Z,2.13
2023-03-22T12:39:24.047Z,2.00
2023-03-22T12:41:51.976Z,2.27
2023-03-22T12:44:21.469Z,2.00
2023-03-22T12:46:50.967Z,2.13
2023-03-22T12:49:22.462Z,2.20
2023-03-22T12:51:52.468Z,2.00
2023-03-22T12:54:20.758Z,2.37
2023-03-22T12:56:49.111Z,2.20
2023-03-22T12:59:19.106Z,2.13
2023-03-22T13:01:48.941Z,2.10
2023-03-22T13:04:34.371Z,2.60
2023-03-22T13:07:14.689Z,2.47
2023-03-22T13:09:43.202Z,1.97
2023-03-22T13:12:31.698Z,2.03
2023-03-22T13:15:01.456Z,2.10
2023-03-22T13:17:41.220Z,1.90
2023-03-22T13:20:38.465Z,2.07
2023-03-22T13:23:13.373Z,2.47
2023-03-22T13:25:44.805Z,2.00
2023-03-22T13:28:23.834Z,2.40
2023-03-22T13:30:52.508Z,2.00
2023-03-22T13:33:21.850Z,2.13
2023-03-22T13:35:51.362Z,2.10
2023-03-22T13:38:23.194Z,2.30
2023-03-22T13:40:54.755Z,2.40
2023-03-22T13:43:28.823Z,2.00
2023-03-22T13:46:06.876Z,1.90
2023-03-22T13:48:43.356Z,2.00
2023-03-22T13:51:13.330Z,2.57
2023-03-22T13:53:47.178Z,2.10
2023-03-22T13:56:15.520Z,2.10
2023-03-22T13:58:51.227Z,2.10
2023-03-22T14:01:23.150Z,2.17
2023-03-22T14:03:51.363Z,2.40
2023-03-22T14:06:21.672Z,2.10
2023-03-22T14:08:52.566Z,2.10
2023-03-22T14:11:26.575Z,2.43
2023-03-22T14:13:56.410Z,2.17
2023-03-22T14:16:33.006Z,2.27
2023-03-22T14:19:01.810Z,2.60
2023-03-22T14:21:34.719Z,2.60
